createdAt,value
2018-07-08T00:00:49.592Z,12.93
2018-07-08T00:02:52.695Z,10.27
2018-07-08T00:04:56.004Z,9.60
2018-07-08T00:06:59.132Z,11.20
2018-07-08T00:09:02.260Z,17.03
2018-07-08T00:11:05.536Z,13.90
2018-07-08T00:13:09.672Z,16.37
2018-07-08T00:15:13.762Z,12.37
2018-07-08T00:17:16.921Z,24.60
2018-07-08T00:19:20.062Z,33.53
2018-07-08T00:21:23.241Z,14.67
2018-07-08T00:23:26.370Z,14.33
2018-07-08T00:25:29.570Z,20.00
2018-07-08T00:27:32.719Z,11.93
2018-07-08T00:29:35.868Z,14.57
2018-07-08T00:31:39.030Z,15.03
2018-07-08T00:33:42.187Z,22.83
2018-07-08T00:35:45.340Z,11.73
2018-07-08T00:37:48.485Z,19.67
2018-07-08T00:39:51.663Z,28.53
2018-07-08T00:41:54.752Z,14.60
2018-07-08T00:43:57.911Z,10.73
2018-07-08T00:46:00.859Z,13.60
2018-07-08T00:48:04.016Z,17.87
2018-07-08T00:50:07.186Z,17.37
2018-07-08T00:52:10.983Z,14.57
2018-07-08T00:54:14.125Z,13.50
2018-07-08T00:56:17.268Z,19.70
2018-07-08T00:58:20.443Z,15.93
2018-07-08T01:00:29.204Z,14.90
2018-07-08T01:02:32.420Z,19.33
2018-07-08T01:04:35.561Z,15.73
2018-07-08T01:06:38.688Z,18.97
2018-07-08T01:08:41.885Z,13.53
2018-07-08T01:10:45.000Z,17.47
2018-07-08T01:12:48.157Z,18.73
2018-07-08T01:14:51.338Z,15.53
2018-07-08T01:16:54.488Z,17.87
2018-07-08T01:18:57.628Z,10.90
2018-07-08T01:21:00.780Z,26.97
2018-07-08T01:23:03.964Z,19.47
2018-07-08T01:25:12.682Z,23.70
2018-07-08T01:27:15.824Z,16.87
2018-07-08T01:29:18.964Z,19.17
2018-07-08T01:31:22.144Z,21.30
2018-07-08T01:33:25.282Z,33.57
2018-07-08T01:35:28.420Z,18.53
2018-07-08T01:37:32.000Z,8.37
2018-07-08T01:39:35.134Z,12.97
2018-07-08T01:41:38.384Z,14.17
2018-07-08T01:43:41.528Z,11.40
2018-07-08T01:45:44.666Z,25.90
2018-07-08T01:47:47.820Z,20.97
2018-07-08T01:49:51.552Z,18.80
2018-07-08T01:51:54.720Z,15.20
2018-07-08T01:53:57.888Z,21.57
2018-07-08T01:56:01.052Z,16.03
2018-07-08T01:58:04.208Z,22.67
2018-07-08T02:00:07.601Z,20.87
2018-07-08T02:02:10.739Z,15.50
2018-07-08T02:04:13.908Z,17.20
2018-07-08T02:06:17.064Z,28.47
2018-07-08T02:08:20.199Z,18.17
2018-07-08T02:10:23.331Z,25.47
2018-07-08T02:12:26.480Z,21.20
2018-07-08T02:14:29.760Z,16.30
2018-07-08T02:16:32.880Z,26.67
2018-07-08T02:18:36.069Z,26.60
2018-07-08T02:20:39.224Z,18.57
2018-07-08T02:22:42.381Z,17.67
2018-07-08T02:24:45.556Z,22.10
2018-07-08T02:26:48.827Z,14.90
2018-07-08T02:28:52.492Z,22.00
2018-07-08T02:30:55.646Z,17.40
2018-07-08T02:32:58.789Z,27.80
2018-07-08T02:35:01.952Z,16.50
2018-07-08T02:37:05.141Z,10.47
2018-07-08T02:39:08.851Z,21.50
2018-07-08T02:41:11.988Z,22.37
2018-07-08T02:43:15.146Z,24.37
2018-07-08T02:45:18.301Z,29.00
2018-07-08T02:47:21.627Z,31.87
2018-07-08T02:49:24.788Z,21.90
2018-07-08T02:51:28.520Z,14.03
2018-07-08T02:53:31.628Z,24.50
2018-07-08T02:55:34.872Z,25.20
2018-07-08T02:57:37.997Z,22.17
2018-07-08T02:59:41.124Z,24.13
2018-07-08T03:01:44.219Z,30.80
2018-07-08T03:03:47.456Z,29.63
2018-07-08T03:05:50.556Z,30.83
2018-07-08T03:07:53.658Z,22.20
2018-07-08T03:09:56.760Z,21.80
2018-07-08T03:12:00.096Z,33.30
2018-07-08T03:14:03.456Z,18.37
2018-07-08T03:16:06.593Z,28.03
2018-07-08T03:18:09.728Z,24.97
2018-07-08T03:20:12.833Z,33.97
2018-07-08T03:22:15.933Z,21.90
2018-07-08T03:24:19.403Z,27.73
2018-07-08T03:26:22.484Z,46.57
2018-07-08T03:28:25.607Z,32.90
2018-07-08T03:30:28.704Z,36.93
2018-07-08T03:32:31.809Z,25.83
2018-07-08T03:34:34.940Z,18.10
2018-07-08T03:36:38.042Z,18.40
2018-07-08T03:38:41.148Z,28.67
2018-07-08T03:40:44.283Z,23.07
2018-07-08T03:42:47.380Z,28.10
2018-07-08T03:44:50.527Z,30.23
2018-07-08T03:46:53.629Z,23.43
2018-07-08T03:48:56.740Z,20.63
2018-07-08T03:50:59.853Z,32.03
2018-07-08T03:53:03.497Z,25.50
2018-07-08T03:55:06.634Z,26.17
2018-07-08T03:57:09.780Z,35.20
2018-07-08T03:59:12.948Z,44.97
2018-07-08T04:01:16.078Z,26.97
2018-07-08T04:03:20.350Z,25.87
2018-07-08T04:05:23.508Z,27.63
2018-07-08T04:07:26.651Z,27.27
2018-07-08T04:09:29.799Z,25.67
2018-07-08T04:11:32.970Z,30.00
2018-07-08T04:13:36.099Z,24.93
2018-07-08T04:15:39.284Z,24.30
2018-07-08T04:17:42.394Z,23.43
2018-07-08T04:19:45.549Z,31.20
2018-07-08T04:21:48.687Z,26.80
2018-07-08T04:23:51.875Z,31.10
2018-07-08T04:25:55.073Z,32.13
2018-07-08T04:27:58.224Z,41.30
2018-07-08T04:30:01.360Z,27.87
2018-07-08T04:32:04.504Z,22.93
2018-07-08T04:34:07.671Z,33.30
2018-07-08T04:36:10.843Z,21.73
2018-07-08T04:38:13.988Z,44.93
2018-07-08T04:40:17.156Z,32.20
2018-07-08T04:42:20.308Z,42.47
2018-07-08T04:44:23.455Z,31.57
2018-07-08T04:46:26.596Z,24.43
2018-07-08T04:48:29.742Z,24.73
2018-07-08T04:50:32.897Z,30.50
2018-07-08T04:52:36.040Z,23.93
2018-07-08T04:54:39.253Z,28.40
2018-07-08T04:56:42.344Z,39.20
2018-07-08T04:58:45.452Z,23.03
2018-07-08T05:00:48.585Z,18.57
2018-07-08T05:02:51.711Z,20.53
2018-07-08T05:04:54.827Z,14.87
2018-07-08T05:06:57.937Z,15.77
2018-07-08T05:09:00.835Z,11.77
2018-07-08T05:11:03.963Z,10.70
2018-07-08T05:13:07.560Z,8.40
2018-07-08T05:15:10.689Z,15.77
2018-07-08T05:17:13.784Z,24.47
2018-07-08T05:19:16.899Z,15.67
2018-07-08T05:21:20.008Z,14.13
2018-07-08T05:23:23.131Z,14.13
2018-07-08T05:25:27.187Z,19.87
2018-07-08T05:27:30.315Z,13.47
2018-07-08T05:29:33.441Z,13.10
2018-07-08T05:31:36.532Z,9.60
2018-07-08T05:33:39.657Z,8.10
2018-07-08T05:35:42.853Z,13.47
2018-07-08T05:37:45.912Z,14.97
2018-07-08T05:39:49.062Z,14.17
2018-07-08T05:41:52.168Z,15.67
2018-07-08T05:43:55.379Z,13.93
2018-07-08T05:45:58.517Z,13.87
2018-07-08T05:48:01.633Z,11.57
2018-07-08T05:50:05.783Z,7.23
2018-07-08T05:52:08.868Z,9.47
2018-07-08T05:54:12.018Z,8.43
2018-07-08T05:56:15.129Z,15.23
2018-07-08T05:58:18.274Z,12.40
2018-07-08T06:00:21.448Z,8.30
2018-07-08T06:02:24.535Z,11.70
2018-07-08T06:04:27.729Z,15.57
2018-07-08T06:06:31.458Z,9.57
2018-07-08T06:08:34.568Z,12.40
2018-07-08T06:10:37.787Z,12.83
2018-07-08T06:12:41.034Z,12.00
2018-07-08T06:14:44.013Z,15.07
2018-07-08T06:16:47.164Z,18.53
2018-07-08T06:18:50.596Z,9.70
2018-07-08T06:20:54.553Z,10.00
2018-07-08T06:22:57.656Z,4.97
2018-07-08T06:25:00.782Z,8.83
2018-07-08T06:27:03.888Z,12.93
2018-07-08T06:29:07.067Z,4.47
2018-07-08T06:31:10.254Z,8.50
2018-07-08T06:33:13.209Z,15.10
2018-07-08T06:35:16.344Z,7.10
2018-07-08T06:37:19.456Z,9.33
2018-07-08T06:39:22.583Z,6.53
2018-07-08T06:41:25.702Z,14.73
2018-07-08T06:43:28.824Z,15.03
2018-07-08T06:45:31.945Z,9.67
2018-07-08T06:47:35.034Z,8.17
2018-07-08T06:49:37.910Z,12.97
2018-07-08T06:51:40.816Z,8.07
2018-07-08T06:53:44.145Z,13.00
2018-07-08T06:55:47.289Z,9.37
2018-07-08T06:57:50.425Z,5.27
2018-07-08T06:59:53.620Z,5.30
2018-07-08T07:01:56.796Z,7.00
2018-07-08T07:03:59.965Z,5.60
2018-07-08T07:06:03.119Z,17.60
2018-07-08T07:08:06.381Z,16.70
2018-07-08T07:10:09.528Z,9.87
2018-07-08T07:12:12.653Z,7.27
2018-07-08T07:14:15.809Z,20.70
2018-07-08T07:16:18.956Z,23.93
2018-07-08T07:18:22.125Z,17.83
2018-07-08T07:20:25.308Z,7.63
2018-07-08T07:22:28.457Z,12.30
2018-07-08T07:24:31.693Z,9.90
2018-07-08T07:26:35.024Z,19.63
2018-07-08T07:28:38.239Z,8.00
2018-07-08T07:30:41.332Z,8.40
2018-07-08T07:32:44.451Z,6.33
2018-07-08T07:34:47.600Z,15.80
2018-07-08T07:36:50.744Z,14.37
2018-07-08T07:38:53.877Z,6.73
2018-07-08T07:40:57.035Z,8.07
2018-07-08T07:43:00.184Z,10.00
2018-07-08T07:45:03.375Z,8.10
2018-07-08T07:47:06.556Z,11.80
2018-07-08T07:49:09.712Z,5.97
2018-07-08T07:51:12.864Z,4.20
2018-07-08T07:53:15.969Z,8.77
2018-07-08T07:55:19.105Z,5.43
2018-07-08T07:57:23.116Z,5.17
2018-07-08T07:59:26.220Z,5.73
2018-07-08T08:01:29.324Z,10.30
2018-07-08T08:03:32.437Z,3.57
2018-07-08T08:05:35.558Z,8.67
2018-07-08T08:07:38.665Z,6.70
2018-07-08T08:09:41.757Z,9.70
2018-07-08T08:11:44.889Z,7.47
2018-07-08T08:14:04.936Z,12.27
2018-07-08T08:16:08.047Z,8.53
2018-07-08T08:18:11.155Z,8.30
2018-07-08T08:20:14.284Z,10.77
2018-07-08T08:22:17.410Z,16.43
2018-07-08T08:24:20.564Z,6.77
2018-07-08T08:26:23.690Z,6.70
2018-07-08T08:28:26.773Z,5.10
2018-07-08T08:30:29.896Z,10.77
2018-07-08T08:32:32.996Z,16.73
2018-07-08T08:34:52.381Z,7.53
2018-07-08T08:36:55.516Z,9.53
2018-07-08T08:38:58.725Z,7.20
2018-07-08T08:41:01.825Z,4.30
2018-07-08T08:43:04.968Z,8.10
2018-07-08T08:45:09.331Z,7.67
2018-07-08T08:47:12.708Z,4.80
2018-07-08T08:49:15.829Z,5.07
2018-07-08T08:51:18.942Z,5.50
2018-07-08T08:53:22.083Z,6.97
2018-07-08T08:55:25.254Z,2.50
2018-07-08T08:57:28.378Z,9.27
2018-07-08T08:59:31.521Z,8.23
2018-07-08T09:01:34.664Z,12.30
2018-07-08T09:03:37.803Z,2.80
2018-07-08T09:05:40.953Z,1.57
2018-07-08T09:07:44.163Z,7.30
2018-07-08T09:09:47.460Z,5.83
2018-07-08T09:11:50.594Z,7.43
2018-07-08T09:13:54.021Z,9.43
2018-07-08T09:15:57.189Z,6.30
2018-07-08T09:18:00.297Z,6.57
2018-07-08T09:20:03.412Z,6.77
2018-07-08T09:22:07.912Z,8.77
2018-07-08T09:24:11.074Z,2.40
2018-07-08T09:26:14.216Z,5.17
2018-07-08T09:28:17.369Z,3.60
2018-07-08T09:30:20.507Z,8.53
2018-07-08T09:32:23.726Z,5.13
2018-07-08T09:34:26.870Z,6.63
2018-07-08T09:36:30.021Z,4.27
2018-07-08T09:38:33.192Z,4.97
2018-07-08T09:40:36.477Z,2.80
2018-07-08T09:42:39.604Z,7.80
2018-07-08T09:44:42.763Z,5.07
2018-07-08T09:46:46.809Z,1.80
2018-07-08T09:48:49.941Z,2.60
2018-07-08T09:50:53.109Z,8.30
2018-07-08T09:52:56.246Z,3.40
2018-07-08T09:54:59.412Z,4.20
2018-07-08T09:57:02.568Z,4.87
2018-07-08T09:59:05.757Z,2.63
2018-07-08T10:01:08.872Z,5.90
2018-07-08T10:03:12.012Z,2.53
2018-07-08T10:05:15.168Z,11.57
2018-07-08T10:07:18.299Z,2.33
2018-07-08T10:09:22.656Z,5.60
2018-07-08T10:11:25.815Z,2.70
2018-07-08T10:13:29.239Z,2.43
2018-07-08T10:15:32.387Z,2.80
2018-07-08T10:17:35.633Z,5.13
2018-07-08T10:19:38.767Z,8.70
2018-07-08T10:21:41.791Z,13.50
2018-07-08T10:23:45.034Z,11.00
2018-07-08T10:25:48.156Z,9.53
2018-07-08T10:28:17.867Z,1.37
2018-07-08T10:30:21.021Z,3.17
2018-07-08T10:32:24.159Z,4.60
2018-07-08T10:34:27.308Z,2.57
2018-07-08T10:36:30.520Z,3.97
2018-07-08T10:38:34.209Z,3.33
2018-07-08T10:40:37.374Z,10.53
2018-07-08T10:42:40.581Z,1.10
2018-07-08T10:44:43.733Z,2.10
2018-07-08T10:46:46.863Z,5.50
2018-07-08T10:48:50.193Z,6.20
2018-07-08T10:50:53.320Z,4.37
2018-07-08T10:52:56.532Z,4.73
2018-07-08T10:54:59.680Z,3.67
2018-07-08T10:57:02.847Z,6.57
2018-07-08T10:59:06.093Z,5.43
2018-07-08T11:01:09.255Z,5.30
2018-07-08T11:03:12.441Z,6.00
2018-07-08T11:05:15.690Z,3.43
2018-07-08T11:07:18.855Z,3.83
2018-07-08T11:09:22.039Z,3.63
2018-07-08T11:11:25.182Z,7.33
2018-07-08T11:13:28.368Z,1.23
2018-07-08T11:15:31.508Z,4.53
2018-07-08T11:17:34.671Z,2.40
2018-07-08T11:19:37.894Z,5.47
2018-07-08T11:21:41.072Z,6.73
2018-07-08T11:23:44.709Z,4.70
2018-07-08T11:25:47.871Z,3.00
2018-07-08T11:27:51.004Z,7.23
2018-07-08T11:29:54.364Z,3.20
2018-07-08T11:31:57.456Z,1.70
2018-07-08T11:34:00.608Z,4.07
2018-07-08T11:36:04.077Z,2.30
2018-07-08T11:38:07.688Z,2.63
2018-07-08T11:40:11.123Z,4.30
2018-07-08T11:42:14.341Z,5.70
2018-07-08T11:44:17.589Z,2.70
2018-07-08T11:46:20.724Z,2.50
2018-07-08T11:48:23.862Z,2.37
2018-07-08T11:50:26.987Z,4.73
2018-07-08T11:52:30.187Z,0.80
2018-07-08T11:54:33.401Z,2.83
2018-07-08T11:56:36.553Z,7.33
2018-07-08T11:58:39.716Z,2.50
2018-07-08T12:00:43.826Z,5.20
2018-07-08T12:02:47.032Z,2.80
2018-07-08T12:04:50.170Z,1.83
2018-07-08T12:06:53.323Z,1.17
2018-07-08T12:08:56.551Z,5.20
2018-07-08T12:11:00.794Z,7.13
2018-07-08T12:13:03.944Z,7.90
2018-07-08T12:15:07.281Z,6.77
2018-07-08T12:17:10.556Z,2.30
2018-07-08T12:19:15.257Z,9.23
2018-07-08T12:21:18.490Z,3.80
2018-07-08T12:23:21.565Z,2.40
2018-07-08T12:25:25.191Z,1.27
2018-07-08T12:27:28.406Z,4.20
2018-07-08T12:29:32.119Z,1.63
2018-07-08T12:31:35.419Z,2.40
2018-07-08T12:33:39.195Z,4.07
2018-07-08T12:35:42.430Z,5.83
2018-07-08T12:37:45.575Z,1.40
2018-07-08T12:39:48.863Z,1.43
2018-07-08T12:41:51.991Z,1.37
2018-07-08T12:43:55.135Z,1.57
2018-07-08T12:45:58.328Z,2.67
2018-07-08T12:48:01.525Z,1.00
2018-07-08T12:50:04.653Z,3.23
2018-07-08T12:52:07.824Z,5.67
2018-07-08T12:54:10.997Z,2.57
2018-07-08T12:56:14.155Z,1.40
2018-07-08T12:58:17.304Z,2.70
2018-07-08T13:00:20.192Z,2.43
2018-07-08T13:02:23.352Z,2.60
2018-07-08T13:04:26.525Z,7.67
2018-07-08T13:06:29.950Z,8.83
2018-07-08T13:08:33.177Z,5.40
2018-07-08T13:10:36.458Z,5.90
2018-07-08T13:12:39.596Z,1.90
2018-07-08T13:14:42.749Z,8.77
2018-07-08T13:16:45.937Z,7.53
2018-07-08T13:18:49.082Z,4.03
2018-07-08T13:20:52.237Z,4.33
2018-07-08T13:22:55.242Z,3.20
2018-07-08T13:24:58.607Z,2.40
2018-07-08T13:27:01.752Z,3.57
2018-07-08T13:29:04.891Z,3.10
2018-07-08T13:31:09.063Z,2.83
2018-07-08T13:33:12.273Z,12.60
2018-07-08T13:35:16.045Z,4.70
2018-07-08T13:37:19.288Z,2.77
2018-07-08T13:39:22.420Z,1.83
2018-07-08T13:41:25.569Z,7.30
2018-07-08T13:43:28.730Z,10.83
2018-07-08T13:45:31.880Z,2.93
2018-07-08T13:47:35.038Z,4.00
2018-07-08T13:49:38.192Z,9.97
2018-07-08T13:51:41.336Z,6.50
2018-07-08T13:53:44.436Z,2.87
2018-07-08T13:55:48.473Z,3.33
2018-07-08T13:57:51.579Z,4.17
2018-07-08T13:59:54.697Z,6.07
2018-07-08T14:01:57.824Z,4.73
2018-07-08T14:04:01.484Z,3.37
2018-07-08T14:06:04.614Z,5.03
2018-07-08T14:08:07.723Z,3.43
2018-07-08T14:10:10.667Z,3.53
2018-07-08T14:12:14.184Z,2.93
2018-07-08T14:14:17.272Z,4.80
2018-07-08T14:16:20.171Z,7.10
2018-07-08T14:18:23.288Z,7.53
2018-07-08T14:20:26.395Z,3.20
2018-07-08T14:22:29.517Z,3.13
2018-07-08T14:24:32.629Z,7.57
2018-07-08T14:26:35.917Z,3.47
2018-07-08T14:28:39.136Z,4.63
2018-07-08T14:30:42.395Z,1.53
2018-07-08T14:32:45.504Z,3.50
2018-07-08T14:34:48.873Z,3.57
2018-07-08T14:36:51.967Z,4.93
2018-07-08T14:38:55.144Z,4.20
2018-07-08T14:40:58.225Z,7.10
2018-07-08T14:43:01.707Z,10.37
2018-07-08T14:45:04.960Z,3.20
2018-07-08T14:47:08.124Z,3.60
2018-07-08T14:49:11.227Z,2.43
2018-07-08T14:51:14.312Z,5.83
2018-07-08T14:53:17.468Z,5.13
2018-07-08T14:55:20.579Z,13.33
2018-07-08T14:57:24.719Z,3.40
2018-07-08T14:59:27.891Z,6.20
2018-07-08T15:01:30.985Z,9.93
2018-07-08T15:03:33.883Z,6.17
2018-07-08T15:05:37.000Z,3.70
2018-07-08T15:07:40.175Z,6.07
2018-07-08T15:09:43.279Z,3.20
2018-07-08T15:11:46.828Z,7.20
2018-07-08T15:13:50.312Z,3.00
2018-07-08T15:15:53.267Z,3.30
2018-07-08T15:17:56.075Z,1.70
2018-07-08T15:19:59.197Z,1.77
2018-07-08T15:22:02.356Z,13.30
2018-07-08T15:24:05.504Z,7.23
2018-07-08T15:26:08.652Z,2.63
2018-07-08T15:28:11.791Z,6.03
2018-07-08T15:30:14.901Z,2.63
2018-07-08T15:32:17.998Z,12.03
2018-07-08T15:34:23.282Z,3.57
2018-07-08T15:36:26.456Z,1.53
2018-07-08T15:38:29.578Z,9.90
2018-07-08T15:40:32.941Z,9.80
2018-07-08T15:42:36.152Z,4.33
2018-07-08T15:44:39.260Z,4.13
2018-07-08T15:46:43.405Z,2.63
2018-07-08T15:48:46.532Z,2.43
2018-07-08T15:50:49.629Z,7.00
2018-07-08T15:52:52.889Z,1.30
2018-07-08T15:54:58.433Z,1.87
2018-07-08T15:57:01.924Z,6.23
2018-07-08T15:59:06.308Z,2.73
2018-07-08T16:01:09.467Z,2.80
2018-07-08T16:03:12.660Z,5.97
2018-07-08T16:05:15.774Z,3.03
2018-07-08T16:07:18.943Z,3.10
2018-07-08T16:09:22.141Z,2.43
2018-07-08T16:11:26.599Z,2.50
2018-07-08T16:13:29.752Z,6.80
2018-07-08T16:15:34.155Z,7.53
2018-07-08T16:17:37.689Z,2.77
2018-07-08T16:19:40.785Z,2.77
2018-07-08T16:21:43.879Z,2.27
2018-07-08T16:23:46.980Z,2.63
2018-07-08T16:25:50.126Z,3.60
2018-07-08T16:27:53.189Z,4.67
2018-07-08T16:29:56.868Z,1.90
2018-07-08T16:32:00.015Z,8.73
2018-07-08T16:34:03.493Z,1.87
2018-07-08T16:36:06.588Z,3.37
2018-07-08T16:38:09.684Z,4.40
2018-07-08T16:40:12.772Z,3.53
2018-07-08T16:42:15.655Z,3.20
2018-07-08T16:44:18.752Z,1.70
2018-07-08T16:46:21.867Z,4.10
2018-07-08T16:48:25.403Z,1.57
2018-07-08T16:50:28.605Z,1.67
2018-07-08T16:52:31.869Z,1.43
2018-07-08T16:54:34.973Z,4.40
2018-07-08T16:56:38.343Z,3.13
2018-07-08T16:58:41.715Z,2.80
2018-07-08T17:00:44.848Z,2.20
2018-07-08T17:02:47.808Z,3.40
2018-07-08T17:04:50.936Z,6.53
2018-07-08T17:06:54.040Z,1.60
2018-07-08T17:08:57.132Z,2.63
2018-07-08T17:11:00.274Z,1.00
2018-07-08T17:13:03.234Z,7.40
2018-07-08T17:15:06.356Z,1.33
2018-07-08T17:17:09.455Z,3.63
2018-07-08T17:19:12.595Z,4.80
2018-07-08T17:21:15.688Z,3.70
2018-07-08T17:23:18.883Z,1.60
2018-07-08T17:25:22.006Z,1.77
2018-07-08T17:27:25.495Z,4.80
2018-07-08T17:29:28.632Z,14.03
2018-07-08T17:31:31.724Z,1.37
2018-07-08T17:33:34.939Z,1.83
2018-07-08T17:35:38.035Z,3.30
2018-07-08T17:37:41.118Z,2.83
2018-07-08T17:39:44.220Z,12.23
2018-07-08T17:41:47.352Z,1.73
2018-07-08T17:43:50.585Z,6.40
2018-07-08T17:45:53.694Z,1.60
2018-07-08T17:47:56.792Z,8.47
2018-07-08T17:49:59.955Z,8.43
2018-07-08T17:52:03.082Z,5.33
2018-07-08T17:54:06.460Z,1.77
2018-07-08T17:56:09.560Z,10.60
2018-07-08T17:58:12.682Z,3.50
2018-07-08T18:00:15.782Z,2.40
2018-07-08T18:02:18.911Z,15.73
2018-07-08T18:04:22.040Z,3.43
2018-07-08T18:06:25.188Z,5.37
2018-07-08T18:08:28.335Z,1.73
2018-07-08T18:10:31.464Z,2.60
2018-07-08T18:12:34.608Z,2.03
2018-07-08T18:14:37.737Z,2.53
2018-07-08T18:16:40.832Z,5.17
2018-07-08T18:18:44.001Z,8.43
2018-07-08T18:20:47.091Z,3.33
2018-07-08T18:22:50.846Z,2.17
2018-07-08T18:24:53.937Z,4.43
2018-07-08T18:26:57.136Z,1.67
2018-07-08T18:29:00.284Z,4.40
2018-07-08T18:31:03.404Z,1.23
2018-07-08T18:33:06.812Z,1.73
2018-07-08T18:35:09.993Z,4.83
2018-07-08T18:37:13.088Z,3.23
2018-07-08T18:39:16.269Z,2.90
2018-07-08T18:41:19.365Z,3.43
2018-07-08T18:43:23.052Z,1.10
2018-07-08T18:45:26.148Z,4.23
2018-07-08T18:47:29.243Z,1.50
2018-07-08T18:49:32.666Z,3.03
2018-07-08T18:51:35.788Z,3.43
2018-07-08T18:53:38.939Z,4.03
2018-07-08T18:55:42.093Z,3.00
2018-07-08T18:57:45.232Z,4.23
2018-07-08T18:59:48.396Z,5.07
2018-07-08T19:01:51.541Z,4.93
2018-07-08T19:03:54.929Z,2.50
2018-07-08T19:05:58.084Z,1.90
2018-07-08T19:08:01.252Z,6.13
2018-07-08T19:10:04.392Z,5.47
2018-07-08T19:12:07.529Z,3.40
2018-07-08T19:14:11.069Z,7.33
2018-07-08T19:16:14.236Z,3.80
2018-07-08T19:18:17.468Z,3.60
2018-07-08T19:20:20.636Z,4.90
2018-07-08T19:22:23.819Z,7.30
2018-07-08T19:24:27.044Z,4.27
2018-07-08T19:26:30.359Z,8.97
2018-07-08T19:28:33.512Z,4.03
2018-07-08T19:30:36.873Z,5.70
2018-07-08T19:32:40.026Z,4.47
2018-07-08T19:34:43.219Z,5.10
2018-07-08T19:36:46.373Z,2.73
2018-07-08T19:38:49.591Z,4.10
2018-07-08T19:40:52.712Z,8.97
2018-07-08T19:42:55.859Z,5.80
2018-07-08T19:44:59.023Z,3.40
2018-07-08T19:47:02.177Z,2.60
2018-07-08T19:49:05.393Z,5.10
2018-07-08T19:51:08.544Z,4.57
2018-07-08T19:53:11.996Z,3.87
2018-07-08T19:55:15.108Z,4.30
2018-07-08T19:57:19.072Z,12.63
2018-07-08T19:59:22.984Z,2.40
2018-07-08T20:01:26.413Z,5.47
2018-07-08T20:03:29.519Z,5.93
2018-07-08T20:05:32.647Z,3.00
2018-07-08T20:07:35.772Z,3.63
2018-07-08T20:09:38.846Z,2.03
2018-07-08T20:11:41.942Z,5.93
2018-07-08T20:13:45.061Z,3.73
2018-07-08T20:15:48.197Z,10.57
2018-07-08T20:17:51.292Z,9.03
2018-07-08T20:19:54.413Z,3.10
2018-07-08T20:21:57.512Z,3.67
2018-07-08T20:24:00.620Z,4.80
2018-07-08T20:26:03.812Z,4.07
2018-07-08T20:28:06.910Z,7.83
2018-07-08T20:30:10.307Z,4.63
2018-07-08T20:32:13.425Z,2.00
2018-07-08T20:34:16.694Z,5.43
2018-07-08T20:36:20.369Z,4.07
2018-07-08T20:38:23.457Z,12.00
2018-07-08T20:40:26.571Z,7.63
2018-07-08T20:42:29.948Z,6.40
2018-07-08T20:44:33.096Z,10.63
2018-07-08T20:46:36.219Z,5.13
2018-07-08T20:48:39.400Z,8.47
2018-07-08T20:50:42.512Z,6.90
2018-07-08T20:52:45.604Z,7.70
2018-07-08T20:54:49.182Z,13.87
2018-07-08T20:56:52.289Z,4.40
2018-07-08T20:58:55.395Z,6.37
2018-07-08T21:00:58.487Z,3.10
2018-07-08T21:03:01.565Z,3.83
2018-07-08T21:05:04.680Z,2.63
2018-07-08T21:07:07.784Z,2.30
2018-07-08T21:09:10.897Z,5.33
2018-07-08T21:11:13.776Z,7.80
2018-07-08T21:13:17.735Z,4.57
2018-07-08T21:15:20.875Z,5.67
2018-07-08T21:17:23.964Z,8.60
2018-07-08T21:19:27.096Z,3.83
2018-07-08T21:21:30.196Z,4.17
2018-07-08T21:23:33.293Z,5.10
2018-07-08T21:25:36.461Z,14.93
2018-07-08T21:27:39.572Z,7.20
2018-07-08T21:29:42.813Z,7.50
2018-07-08T21:31:46.010Z,3.23
2018-07-08T21:33:49.117Z,2.90
2018-07-08T21:35:52.224Z,4.80
2018-07-08T21:37:55.335Z,4.63
2018-07-08T21:39:58.451Z,11.77
2018-07-08T21:42:01.578Z,4.40
2018-07-08T21:44:04.696Z,11.27
2018-07-08T21:46:07.807Z,9.13
2018-07-08T21:48:10.984Z,5.00
2018-07-08T21:50:14.079Z,4.50
2018-07-08T21:52:17.217Z,8.73
2018-07-08T21:54:20.352Z,2.20
2018-07-08T21:56:24.232Z,7.60
2018-07-08T21:58:27.343Z,3.57
2018-07-08T22:00:31.471Z,4.20
2018-07-08T22:02:34.577Z,12.43
2018-07-08T22:04:37.708Z,9.90
2018-07-08T22:06:40.816Z,10.10
2018-07-08T22:08:44.188Z,3.00
2018-07-08T22:10:47.301Z,11.03
2018-07-08T22:12:50.401Z,9.93
2018-07-08T22:14:53.578Z,5.90
2018-07-08T22:16:57.034Z,10.40
2018-07-08T22:19:00.205Z,2.70
2018-07-08T22:21:03.862Z,4.10
2018-07-08T22:23:06.953Z,3.10
2018-07-08T22:25:10.089Z,3.63
2018-07-08T22:27:13.201Z,4.80
2018-07-08T22:29:16.307Z,3.53
2018-07-08T22:31:19.432Z,3.60
2018-07-08T22:33:22.560Z,3.57
2018-07-08T22:35:25.671Z,8.93
2018-07-08T22:37:28.783Z,7.57
2018-07-08T22:39:31.907Z,3.00
2018-07-08T22:41:35.422Z,6.10
2018-07-08T22:43:38.509Z,4.50
2018-07-08T22:45:41.781Z,7.30
2018-07-08T22:47:44.892Z,6.73
2018-07-08T22:49:48.034Z,6.63
2018-07-08T22:51:51.266Z,7.43
2018-07-08T22:53:54.948Z,7.50
2018-07-08T22:55:58.105Z,8.47
2018-07-08T22:58:01.250Z,10.70
2018-07-08T23:00:15.736Z,6.70
2018-07-08T23:03:58.804Z,3.67
2018-07-08T23:06:01.941Z,3.70
2018-07-08T23:08:05.643Z,12.00
2018-07-08T23:10:09.591Z,7.80
2018-07-08T23:12:12.773Z,14.00
2018-07-08T23:14:16.072Z,10.20
2018-07-08T23:16:19.552Z,8.13
2018-07-08T23:18:22.720Z,4.63
2018-07-08T23:20:25.871Z,7.97
2018-07-08T23:22:34.305Z,4.60
2018-07-08T23:24:37.436Z,4.20
2018-07-08T23:26:40.770Z,8.80
2018-07-08T23:28:43.920Z,7.37
2018-07-08T23:30:47.056Z,8.30
2018-07-08T23:32:50.191Z,5.33
2018-07-08T23:34:53.553Z,14.30
2018-07-08T23:36:57.358Z,15.00
2018-07-08T23:39:00.488Z,9.97
2018-07-08T23:43:29.476Z,3.57
2018-07-08T23:45:32.572Z,6.07
2018-07-08T23:47:35.931Z,6.70
2018-07-08T23:49:39.044Z,6.43
2018-07-08T23:51:41.912Z,5.93
2018-07-08T23:53:45.070Z,10.53
2018-07-08T23:55:48.184Z,5.53
2018-07-08T23:57:51.317Z,6.10
2018-07-08T23:59:54.436Z,8.80
